P Hill, Oregon
Current Conditions -  °F | °C
As of 6:33 PM on Sunday 25 Jan 2015 (Local Time) from KEUG Reporting Station
Moderate Fog Moderate Fog  
Wind Chill: 46°   Ceiling: 100
Heat Index: 46°   Visibility: 0.06mi
Dew Point: 45°   Wind: 0mph
Humidity: 96%   Direction: NA
Pressure: 30.03"   Gusts: NA
Location:  43.9516°N, 122.922°W
Report Text: KEUG 260233Z 00000KT 1/16SM R16R/1600V3000FT FG VV001 08/07 A3003 RMK AO2 SFC VIS 1/8 T00780072 $
Loading
Personal Weather Stations






























Interactive Weather Map New forecast layout! Learn more

10-Day Weather Forecast

Advertisements
Track Severe Weather on mobile